sensor_id;sensor_type;location;lat;lon;timestamp;temperature;humidity
7307;DHT22;3694;48.732;9.248;2023-03-16T00:00:42;-1.00;99.90
7307;DHT22;3694;48.732;9.248;2023-03-16T00:03:09;-0.90;99.90
7307;DHT22;3694;48.732;9.248;2023-03-16T00:05:35;-0.90;99.90
7307;DHT22;3694;48.732;9.248;2023-03-16T00:08:01;-0.90;99.90
7307;DHT22;3694;48.732;9.248;2023-03-16T00:10:27;-0.90;99.90
7307;DHT22;3694;48.732;9.248;2023-03-16T00:12:53;-1.00;99.90
7307;DHT22;3694;48.732;9.248;2023-03-16T00:15:19;-0.90;99.90
7307;DHT22;3694;48.732;9.248;2023-03-16T00:17:45;-0.80;99.90
7307;DHT22;3694;48.732;9.248;2023-03-16T00:20:16;-0.80;99.90
7307;DHT22;3694;48.732;9.248;2023-03-16T00:22:42;-0.80;99.90
7307;DHT22;3694;48.732;9.248;2023-03-16T00:25:10;-0.70;99.90
7307;DHT22;3694;48.732;9.248;2023-03-16T00:27:36;-0.80;99.90
7307;DHT22;3694;48.732;9.248;2023-03-16T00:30:01;-0.80;99.90
7307;DHT22;3694;48.732;9.248;2023-03-16T00:32:32;-0.90;99.90
7307;DHT22;3694;48.732;9.248;2023-03-16T00:34:58;-0.80;99.90
7307;DHT22;3694;48.732;9.248;2023-03-16T00:37:25;-0.90;99.90
7307;DHT22;3694;48.732;9.248;2023-03-16T00:39:52;-1.00;99.90
7307;DHT22;3694;48.732;9.248;2023-03-16T00:42:21;-1.10;99.90
7307;DHT22;3694;48.732;9.248;2023-03-16T00:44:58;-1.20;99.90
7307;DHT22;3694;48.732;9.248;2023-03-16T00:47:26;-1.30;99.90
7307;DHT22;3694;48.732;9.248;2023-03-16T00:49:52;-1.30;99.90
7307;DHT22;3694;48.732;9.248;2023-03-16T00:52:18;-1.40;99.90
7307;DHT22;3694;48.732;9.248;2023-03-16T00:54:45;-1.40;99.90
7307;DHT22;3694;48.732;9.248;2023-03-16T00:57:14;-1.60;99.90
7307;DHT22;3694;48.732;9.248;2023-03-16T00:59:40;-1.70;99.90
7307;DHT22;3694;48.732;9.248;2023-03-16T01:02:07;-1.70;99.90
7307;DHT22;3694;48.732;9.248;2023-03-16T01:04:33;-1.70;99.90
7307;DHT22;3694;48.732;9.248;2023-03-16T01:07:04;-1.60;99.90
7307;DHT22;3694;48.732;9.248;2023-03-16T01:09:30;-1.60;99.90
7307;DHT22;3694;48.732;9.248;2023-03-16T01:11:56;-1.50;99.90
7307;DHT22;3694;48.732;9.248;2023-03-16T01:14:22;-1.30;99.90
7307;DHT22;3694;48.732;9.248;2023-03-16T01:16:48;-1.30;99.90
7307;DHT22;3694;48.732;9.248;2023-03-16T01:19:14;-1.30;99.90
7307;DHT22;3694;48.732;9.248;2023-03-16T01:21:40;-1.20;99.90
7307;DHT22;3694;48.732;9.248;2023-03-16T01:24:08;-1.20;99.90
7307;DHT22;3694;48.732;9.248;2023-03-16T01:26:33;-1.10;99.90
7307;DHT22;3694;48.732;9.248;2023-03-16T01:28:59;-1.00;99.90
7307;DHT22;3694;48.732;9.248;2023-03-16T01:31:25;-1.00;99.90
7307;DHT22;3694;48.732;9.248;2023-03-16T01:33:50;-1.00;99.90
7307;DHT22;3694;48.732;9.248;2023-03-16T01:36:17;-1.00;99.90
7307;DHT22;3694;48.732;9.248;2023-03-16T01:38:46;-1.10;99.90
7307;DHT22;3694;48.732;9.248;2023-03-16T01:41:12;-1.20;99.90
7307;DHT22;3694;48.732;9.248;2023-03-16T01:43:39;-1.20;99.90
7307;DHT22;3694;48.732;9.248;2023-03-16T01:54:30;-1.20;99.90
7307;DHT22;3694;48.732;9.248;2023-03-16T01:57:18;-1.20;99.90
7307;DHT22;3694;48.732;9.248;2023-03-16T01:59:54;-1.20;99.90
7307;DHT22;3694;48.732;9.248;2023-03-16T02:02:26;-1.20;99.90
7307;DHT22;3694;48.732;9.248;2023-03-16T02:05:14;-1.30;99.90
7307;DHT22;3694;48.732;9.248;2023-03-16T02:07:47;-1.30;99.90
7307;DHT22;3694;48.732;9.248;2023-03-16T02:10:18;-1.50;99.90
7307;DHT22;3694;48.732;9.248;2023-03-16T02:12:45;-1.40;99.90
7307;DHT22;3694;48.732;9.248;2023-03-16T02:15:12;-1.40;99.90
7307;DHT22;3694;48.732;9.248;2023-03-16T02:17:40;-1.40;99.90
7307;DHT22;3694;48.732;9.248;2023-03-16T02:23:06;-1.40;99.90
7307;DHT22;3694;48.732;9.248;2023-03-16T02:28:31;-1.50;99.90
7307;DHT22;3694;48.732;9.248;2023-03-16T02:30:59;-1.40;99.90
7307;DHT22;3694;48.732;9.248;2023-03-16T02:33:27;-1.40;99.90
7307;DHT22;3694;48.732;9.248;2023-03-16T02:35:53;-1.60;99.90
7307;DHT22;3694;48.732;9.248;2023-03-16T02:38:18;-1.60;99.90
7307;DHT22;3694;48.732;9.248;2023-03-16T02:40:45;-1.60;99.90
7307;DHT22;3694;48.732;9.248;2023-03-16T02:43:21;-1.60;99.90
7307;DHT22;3694;48.732;9.248;2023-03-16T02:45:51;-1.60;99.90
7307;DHT22;3694;48.732;9.248;2023-03-16T02:48:29;-1.60;99.90
7307;DHT22;3694;48.732;9.248;2023-03-16T02:50:58;-1.70;99.90
7307;DHT22;3694;48.732;9.248;2023-03-16T02:53:23;-1.70;99.90
7307;DHT22;3694;48.732;9.248;2023-03-16T02:55:49;-1.80;99.90
7307;DHT22;3694;48.732;9.248;2023-03-16T02:58:15;-1.90;99.90
7307;DHT22;3694;48.732;9.248;2023-03-16T03:00:41;-1.80;99.90
7307;DHT22;3694;48.732;9.248;2023-03-16T03:03:07;-1.80;99.90
7307;DHT22;3694;48.732;9.248;2023-03-16T03:05:34;-1.80;99.90
7307;DHT22;3694;48.732;9.248;2023-03-16T03:08:00;-1.90;99.90
7307;DHT22;3694;48.732;9.248;2023-03-16T03:10:25;-1.90;99.90
7307;DHT22;3694;48.732;9.248;2023-03-16T03:12:51;-1.90;99.90
7307;DHT22;3694;48.732;9.248;2023-03-16T03:15:17;-1.80;99.90
7307;DHT22;3694;48.732;9.248;2023-03-16T03:17:43;-1.80;99.90
7307;DHT22;3694;48.732;9.248;2023-03-16T03:20:10;-1.70;99.90
7307;DHT22;3694;48.732;9.248;2023-03-16T03:22:42;-1.70;99.90
7307;DHT22;3694;48.732;9.248;2023-03-16T03:25:10;-1.70;99.90
7307;DHT22;3694;48.732;9.248;2023-03-16T03:27:36;-1.80;99.90
7307;DHT22;3694;48.732;9.248;2023-03-16T03:30:03;-1.90;99.90
7307;DHT22;3694;48.732;9.248;2023-03-16T03:32:29;-2.00;99.90
7307;DHT22;3694;48.732;9.248;2023-03-16T03:34:55;-2.00;99.90
7307;DHT22;3694;48.732;9.248;2023-03-16T03:37:21;-2.00;99.90
7307;DHT22;3694;48.732;9.248;2023-03-16T03:39:46;-1.90;99.90
7307;DHT22;3694;48.732;9.248;2023-03-16T03:42:12;-1.90;99.90
7307;DHT22;3694;48.732;9.248;2023-03-16T03:44:38;-1.80;99.90
7307;DHT22;3694;48.732;9.248;2023-03-16T03:47:03;-1.80;99.90
7307;DHT22;3694;48.732;9.248;2023-03-16T03:49:30;-1.70;99.90
7307;DHT22;3694;48.732;9.248;2023-03-16T03:51:56;-1.60;99.90
7307;DHT22;3694;48.732;9.248;2023-03-16T03:54:23;-1.60;99.90
7307;DHT22;3694;48.732;9.248;2023-03-16T03:56:50;-1.70;99.90
7307;DHT22;3694;48.732;9.248;2023-03-16T03:59:16;-1.70;99.90
7307;DHT22;3694;48.732;9.248;2023-03-16T04:01:41;-1.60;99.90
7307;DHT22;3694;48.732;9.248;2023-03-16T04:04:07;-1.70;99.90
7307;DHT22;3694;48.732;9.248;2023-03-16T04:06:32;-1.70;99.90
7307;DHT22;3694;48.732;9.248;2023-03-16T04:08:58;-1.70;99.90
7307;DHT22;3694;48.732;9.248;2023-03-16T04:11:23;-1.60;99.90
7307;DHT22;3694;48.732;9.248;2023-03-16T04:13:52;-1.60;99.90
7307;DHT22;3694;48.732;9.248;2023-03-16T04:16:19;-1.60;99.90
7307;DHT22;3694;48.732;9.248;2023-03-16T04:18:45;-1.60;99.90
7307;DHT22;3694;48.732;9.248;2023-03-16T04:21:14;-1.50;99.90
7307;DHT22;3694;48.732;9.248;2023-03-16T04:23:41;-1.40;99.90
7307;DHT22;3694;48.732;9.248;2023-03-16T04:26:07;-1.40;99.90
7307;DHT22;3694;48.732;9.248;2023-03-16T04:28:32;-1.40;99.90
7307;DHT22;3694;48.732;9.248;2023-03-16T04:31:06;-1.40;99.90
7307;DHT22;3694;48.732;9.248;2023-03-16T04:33:33;-1.50;99.90
7307;DHT22;3694;48.732;9.248;2023-03-16T04:35:59;-1.60;99.90
7307;DHT22;3694;48.732;9.248;2023-03-16T04:38:27;-1.60;99.90
7307;DHT22;3694;48.732;9.248;2023-03-16T04:40:52;-1.50;99.90
7307;DHT22;3694;48.732;9.248;2023-03-16T04:43:18;-1.50;99.90
7307;DHT22;3694;48.732;9.248;2023-03-16T04:45:43;-1.50;99.90
7307;DHT22;3694;48.732;9.248;2023-03-16T04:48:09;-1.50;99.90
7307;DHT22;3694;48.732;9.248;2023-03-16T04:50:35;-1.50;99.90
7307;DHT22;3694;48.732;9.248;2023-03-16T04:53:01;-1.60;99.90
7307;DHT22;3694;48.732;9.248;2023-03-16T04:55:26;-1.70;99.90
7307;DHT22;3694;48.732;9.248;2023-03-16T04:57:52;-1.70;99.90
7307;DHT22;3694;48.732;9.248;2023-03-16T05:00:18;-1.70;99.90
7307;DHT22;3694;48.732;9.248;2023-03-16T05:02:48;-1.80;99.90
7307;DHT22;3694;48.732;9.248;2023-03-16T05:05:15;-1.80;99.90
7307;DHT22;3694;48.732;9.248;2023-03-16T05:07:44;-1.90;99.90
7307;DHT22;3694;48.732;9.248;2023-03-16T05:10:13;-1.90;99.90
7307;DHT22;3694;48.732;9.248;2023-03-16T05:12:38;-1.70;99.90
7307;DHT22;3694;48.732;9.248;2023-03-16T05:15:05;-1.70;99.90
7307;DHT22;3694;48.732;9.248;2023-03-16T05:17:31;-1.70;99.90
7307;DHT22;3694;48.732;9.248;2023-03-16T05:19:57;-1.80;99.90
7307;DHT22;3694;48.732;9.248;2023-03-16T05:22:23;-1.80;99.90
7307;DHT22;3694;48.732;9.248;2023-03-16T05:24:48;-1.80;99.90
7307;DHT22;3694;48.732;9.248;2023-03-16T05:27:14;-1.80;99.90
7307;DHT22;3694;48.732;9.248;2023-03-16T05:29:39;-1.80;99.90
7307;DHT22;3694;48.732;9.248;2023-03-16T05:32:10;-1.80;99.90
7307;DHT22;3694;48.732;9.248;2023-03-16T05:34:36;-1.70;99.90
7307;DHT22;3694;48.732;9.248;2023-03-16T05:37:01;-1.70;99.90
7307;DHT22;3694;48.732;9.248;2023-03-16T05:39:28;-1.50;99.90
7307;DHT22;3694;48.732;9.248;2023-03-16T05:41:55;-1.50;99.90
7307;DHT22;3694;48.732;9.248;2023-03-16T05:44:21;-1.50;99.90
7307;DHT22;3694;48.732;9.248;2023-03-16T05:46:47;-1.50;99.90
7307;DHT22;3694;48.732;9.248;2023-03-16T05:49:12;-1.30;99.90
7307;DHT22;3694;48.732;9.248;2023-03-16T05:51:38;-1.30;99.90
7307;DHT22;3694;48.732;9.248;2023-03-16T05:54:04;-1.20;99.90
7307;DHT22;3694;48.732;9.248;2023-03-16T05:56:29;-1.20;99.90
7307;DHT22;3694;48.732;9.248;2023-03-16T05:58:56;-1.20;99.90
7307;DHT22;3694;48.732;9.248;2023-03-16T06:01:22;-1.10;99.90
7307;DHT22;3694;48.732;9.248;2023-03-16T06:03:48;-1.00;99.90
7307;DHT22;3694;48.732;9.248;2023-03-16T06:06:18;-0.90;99.90
7307;DHT22;3694;48.732;9.248;2023-03-16T06:08:45;-0.80;99.90
7307;DHT22;3694;48.732;9.248;2023-03-16T06:11:10;-0.80;99.90
7307;DHT22;3694;48.732;9.248;2023-03-16T06:13:37;-0.70;99.90
7307;DHT22;3694;48.732;9.248;2023-03-16T06:16:03;-0.60;99.90
7307;DHT22;3694;48.732;9.248;2023-03-16T06:18:31;-0.60;99.90
7307;DHT22;3694;48.732;9.248;2023-03-16T06:20:56;-0.60;99.90
7307;DHT22;3694;48.732;9.248;2023-03-16T06:23:22;-0.50;99.90
7307;DHT22;3694;48.732;9.248;2023-03-16T06:25:47;-0.40;99.90
7307;DHT22;3694;48.732;9.248;2023-03-16T06:28:13;-0.40;99.90
7307;DHT22;3694;48.732;9.248;2023-03-16T06:30:39;-0.30;99.90
7307;DHT22;3694;48.732;9.248;2023-03-16T06:33:05;-0.30;99.90
7307;DHT22;3694;48.732;9.248;2023-03-16T06:35:31;-0.20;99.90
7307;DHT22;3694;48.732;9.248;2023-03-16T06:37:56;-0.20;99.90
7307;DHT22;3694;48.732;9.248;2023-03-16T06:40:22;-0.10;99.90
7307;DHT22;3694;48.732;9.248;2023-03-16T06:42:48;-0.10;99.90
7307;DHT22;3694;48.732;9.248;2023-03-16T06:45:13;0.10;99.90
7307;DHT22;3694;48.732;9.248;2023-03-16T06:47:41;0.00;99.90
7307;DHT22;3694;48.732;9.248;2023-03-16T06:50:09;0.10;99.90
7307;DHT22;3694;48.732;9.248;2023-03-16T06:52:35;0.20;99.90
7307;DHT22;3694;48.732;9.248;2023-03-16T06:55:00;0.50;99.90
7307;DHT22;3694;48.732;9.248;2023-03-16T06:57:26;1.00;99.90
7307;DHT22;3694;48.732;9.248;2023-03-16T06:59:51;1.80;99.90
7307;DHT22;3694;48.732;9.248;2023-03-16T07:02:17;2.60;99.90
7307;DHT22;3694;48.732;9.248;2023-03-16T07:04:44;3.30;99.90
7307;DHT22;3694;48.732;9.248;2023-03-16T07:07:10;3.90;99.90
7307;DHT22;3694;48.732;9.248;2023-03-16T07:09:36;4.00;99.90
7307;DHT22;3694;48.732;9.248;2023-03-16T07:12:02;4.10;99.90
7307;DHT22;3694;48.732;9.248;2023-03-16T07:14:28;4.40;99.90
7307;DHT22;3694;48.732;9.248;2023-03-16T07:16:53;4.70;99.90
7307;DHT22;3694;48.732;9.248;2023-03-16T07:19:19;5.00;99.90
7307;DHT22;3694;48.732;9.248;2023-03-16T07:21:44;5.20;99.90
7307;DHT22;3694;48.732;9.248;2023-03-16T07:24:10;5.60;99.90
7307;DHT22;3694;48.732;9.248;2023-03-16T07:26:37;5.70;99.90
7307;DHT22;3694;48.732;9.248;2023-03-16T07:29:03;6.00;99.90
7307;DHT22;3694;48.732;9.248;2023-03-16T07:31:30;6.20;99.90
7307;DHT22;3694;48.732;9.248;2023-03-16T07:33:57;6.40;99.90
7307;DHT22;3694;48.732;9.248;2023-03-16T07:36:22;6.30;99.90
7307;DHT22;3694;48.732;9.248;2023-03-16T07:38:48;6.10;99.90
7307;DHT22;3694;48.732;9.248;2023-03-16T07:41:13;6.40;99.90
7307;DHT22;3694;48.732;9.248;2023-03-16T07:43:39;6.50;99.90
7307;DHT22;3694;48.732;9.248;2023-03-16T07:46:04;6.40;99.80
7307;DHT22;3694;48.732;9.248;2023-03-16T07:48:30;6.50;99.90
7307;DHT22;3694;48.732;9.248;2023-03-16T07:50:56;6.60;99.90
7307;DHT22;3694;48.732;9.248;2023-03-16T07:53:22;6.50;99.90
7307;DHT22;3694;48.732;9.248;2023-03-16T07:55:47;6.40;99.70
7307;DHT22;3694;48.732;9.248;2023-03-16T07:58:13;6.40;99.90
7307;DHT22;3694;48.732;9.248;2023-03-16T08:00:39;6.70;99.70
7307;DHT22;3694;48.732;9.248;2023-03-16T08:03:04;6.70;99.90
7307;DHT22;3694;48.732;9.248;2023-03-16T08:05:30;6.90;99.90
7307;DHT22;3694;48.732;9.248;2023-03-16T08:07:58;7.00;99.90
7307;DHT22;3694;48.732;9.248;2023-03-16T08:10:26;7.10;98.80
7307;DHT22;3694;48.732;9.248;2023-03-16T08:12:52;7.40;99.90
7307;DHT22;3694;48.732;9.248;2023-03-16T08:15:18;7.50;99.00
7307;DHT22;3694;48.732;9.248;2023-03-16T08:17:44;7.60;99.30
7307;DHT22;3694;48.732;9.248;2023-03-16T08:20:10;7.60;97.40
7307;DHT22;3694;48.732;9.248;2023-03-16T08:22:39;7.70;96.40
7307;DHT22;3694;48.732;9.248;2023-03-16T08:25:07;7.80;96.00
7307;DHT22;3694;48.732;9.248;2023-03-16T08:27:36;7.80;96.30
7307;DHT22;3694;48.732;9.248;2023-03-16T08:30:05;7.70;96.20
7307;DHT22;3694;48.732;9.248;2023-03-16T08:32:31;7.70;95.90
7307;DHT22;3694;48.732;9.248;2023-03-16T08:34:57;7.70;96.40
7307;DHT22;3694;48.732;9.248;2023-03-16T08:37:24;8.10;94.90
7307;DHT22;3694;48.732;9.248;2023-03-16T08:39:51;8.10;95.40
7307;DHT22;3694;48.732;9.248;2023-03-16T08:42:17;8.00;94.90
7307;DHT22;3694;48.732;9.248;2023-03-16T08:44:44;8.10;95.60
7307;DHT22;3694;48.732;9.248;2023-03-16T08:47:09;7.90;94.90
7307;DHT22;3694;48.732;9.248;2023-03-16T08:49:36;8.00;94.30
7307;DHT22;3694;48.732;9.248;2023-03-16T08:52:02;8.20;94.10
7307;DHT22;3694;48.732;9.248;2023-03-16T08:54:29;8.20;94.20
7307;DHT22;3694;48.732;9.248;2023-03-16T08:56:56;8.30;94.40
7307;DHT22;3694;48.732;9.248;2023-03-16T08:59:22;8.20;93.40
7307;DHT22;3694;48.732;9.248;2023-03-16T09:01:47;8.50;93.40
7307;DHT22;3694;48.732;9.248;2023-03-16T09:04:13;8.60;93.20
7307;DHT22;3694;48.732;9.248;2023-03-16T09:06:39;8.70;92.70
7307;DHT22;3694;48.732;9.248;2023-03-16T09:09:06;8.60;92.50
7307;DHT22;3694;48.732;9.248;2023-03-16T09:11:33;8.50;93.00
7307;DHT22;3694;48.732;9.248;2023-03-16T09:14:00;8.30;92.50
7307;DHT22;3694;48.732;9.248;2023-03-16T09:16:26;8.50;92.90
7307;DHT22;3694;48.732;9.248;2023-03-16T09:18:52;8.50;92.60
7307;DHT22;3694;48.732;9.248;2023-03-16T09:21:19;8.80;93.20
7307;DHT22;3694;48.732;9.248;2023-03-16T09:23:45;8.90;92.50
7307;DHT22;3694;48.732;9.248;2023-03-16T09:26:12;8.90;92.00
7307;DHT22;3694;48.732;9.248;2023-03-16T09:28:38;9.10;92.30
7307;DHT22;3694;48.732;9.248;2023-03-16T09:31:07;8.90;90.60
7307;DHT22;3694;48.732;9.248;2023-03-16T09:33:35;8.90;91.40
7307;DHT22;3694;48.732;9.248;2023-03-16T09:36:01;9.20;91.60
7307;DHT22;3694;48.732;9.248;2023-03-16T09:38:27;9.30;91.80
7307;DHT22;3694;48.732;9.248;2023-03-16T09:41:08;9.30;89.30
7307;DHT22;3694;48.732;9.248;2023-03-16T09:43:55;9.30;89.70
7307;DHT22;3694;48.732;9.248;2023-03-16T09:46:30;9.40;90.10
7307;DHT22;3694;48.732;9.248;2023-03-16T09:48:57;9.70;88.40
7307;DHT22;3694;48.732;9.248;2023-03-16T09:54:03;10.10;89.20
7307;DHT22;3694;48.732;9.248;2023-03-16T09:56:39;10.20;87.00
7307;DHT22;3694;48.732;9.248;2023-03-16T09:59:13;10.20;86.40
7307;DHT22;3694;48.732;9.248;2023-03-16T10:07:14;10.00;88.60
7307;DHT22;3694;48.732;9.248;2023-03-16T10:12:50;9.90;85.40
7307;DHT22;3694;48.732;9.248;2023-03-16T10:15:19;10.00;84.60
7307;DHT22;3694;48.732;9.248;2023-03-16T10:17:54;10.10;83.60
7307;DHT22;3694;48.732;9.248;2023-03-16T10:20:22;10.30;84.50
7307;DHT22;3694;48.732;9.248;2023-03-16T10:22:50;10.60;81.50
7307;DHT22;3694;48.732;9.248;2023-03-16T10:25:34;10.50;81.40
7307;DHT22;3694;48.732;9.248;2023-03-16T10:28:00;10.60;82.80
7307;DHT22;3694;48.732;9.248;2023-03-16T10:30:28;10.70;81.20
7307;DHT22;3694;48.732;9.248;2023-03-16T10:36:23;10.60;79.10
7307;DHT22;3694;48.732;9.248;2023-03-16T10:38:53;10.80;78.40
7307;DHT22;3694;48.732;9.248;2023-03-16T10:41:21;10.70;75.60
7307;DHT22;3694;48.732;9.248;2023-03-16T10:43:58;10.50;75.20
7307;DHT22;3694;48.732;9.248;2023-03-16T10:49:25;10.80;75.70
7307;DHT22;3694;48.732;9.248;2023-03-16T10:51:56;11.10;75.60
7307;DHT22;3694;48.732;9.248;2023-03-16T10:54:35;11.10;74.60
7307;DHT22;3694;48.732;9.248;2023-03-16T10:57:17;11.20;76.80
7307;DHT22;3694;48.732;9.248;2023-03-16T10:59:49;11.30;77.40
7307;DHT22;3694;48.732;9.248;2023-03-16T11:02:18;11.20;73.30
7307;DHT22;3694;48.732;9.248;2023-03-16T11:04:50;11.20;73.00
7307;DHT22;3694;48.732;9.248;2023-03-16T11:07:20;11.30;74.80
7307;DHT22;3694;48.732;9.248;2023-03-16T11:09:53;11.30;73.90
7307;DHT22;3694;48.732;9.248;2023-03-16T11:12:29;11.60;77.00
7307;DHT22;3694;48.732;9.248;2023-03-16T11:15:03;11.50;73.10
7307;DHT22;3694;48.732;9.248;2023-03-16T11:17:39;11.20;71.20
7307;DHT22;3694;48.732;9.248;2023-03-16T11:20:16;11.10;73.20
7307;DHT22;3694;48.732;9.248;2023-03-16T11:22:45;11.00;71.20
7307;DHT22;3694;48.732;9.248;2023-03-16T11:25:13;10.90;72.60
7307;DHT22;3694;48.732;9.248;2023-03-16T11:27:53;10.90;74.00
7307;DHT22;3694;48.732;9.248;2023-03-16T11:30:52;10.90;79.40
7307;DHT22;3694;48.732;9.248;2023-03-16T11:33:20;11.00;74.80
7307;DHT22;3694;48.732;9.248;2023-03-16T11:38:20;10.90;73.50
7307;DHT22;3694;48.732;9.248;2023-03-16T11:41:11;11.00;72.30
7307;DHT22;3694;48.732;9.248;2023-03-16T11:43:56;11.10;75.00
7307;DHT22;3694;48.732;9.248;2023-03-16T11:46:41;11.30;74.10
7307;DHT22;3694;48.732;9.248;2023-03-16T11:52:30;11.10;74.30
7307;DHT22;3694;48.732;9.248;2023-03-16T11:55:19;11.00;73.20
7307;DHT22;3694;48.732;9.248;2023-03-16T11:58:20;11.40;76.40
7307;DHT22;3694;48.732;9.248;2023-03-16T12:01:05;11.50;72.80
7307;DHT22;3694;48.732;9.248;2023-03-16T12:06:42;11.50;75.90
7307;DHT22;3694;48.732;9.248;2023-03-16T12:09:42;11.50;70.30
7307;DHT22;3694;48.732;9.248;2023-03-16T12:12:21;11.60;72.40
7307;DHT22;3694;48.732;9.248;2023-03-16T12:15:25;11.70;75.10
7307;DHT22;3694;48.732;9.248;2023-03-16T12:17:58;11.70;70.90
7307;DHT22;3694;48.732;9.248;2023-03-16T12:20:28;11.90;71.80
7307;DHT22;3694;48.732;9.248;2023-03-16T12:23:05;11.90;69.40
7307;DHT22;3694;48.732;9.248;2023-03-16T12:25:35;11.80;72.80
7307;DHT22;3694;48.732;9.248;2023-03-16T12:28:08;12.00;70.70
7307;DHT22;3694;48.732;9.248;2023-03-16T12:30:46;12.30;71.60
7307;DHT22;3694;48.732;9.248;2023-03-16T12:33:25;12.40;70.00
7307;DHT22;3694;48.732;9.248;2023-03-16T12:36:05;12.40;68.20
7307;DHT22;3694;48.732;9.248;2023-03-16T12:38:51;12.20;69.00
7307;DHT22;3694;48.732;9.248;2023-03-16T12:41:56;12.20;66.30
7307;DHT22;3694;48.732;9.248;2023-03-16T12:44:45;12.40;69.10
7307;DHT22;3694;48.732;9.248;2023-03-16T12:50:09;12.70;67.10
7307;DHT22;3694;48.732;9.248;2023-03-16T12:52:43;12.70;68.80
7307;DHT22;3694;48.732;9.248;2023-03-16T12:55:23;13.10;64.80
7307;DHT22;3694;48.732;9.248;2023-03-16T12:57:58;13.10;64.00
7307;DHT22;3694;48.732;9.248;2023-03-16T13:00:32;13.20;64.80
7307;DHT22;3694;48.732;9.248;2023-03-16T13:03:03;13.60;66.00
7307;DHT22;3694;48.732;9.248;2023-03-16T13:05:35;13.60;65.10
7307;DHT22;3694;48.732;9.248;2023-03-16T13:08:08;13.20;63.80
7307;DHT22;3694;48.732;9.248;2023-03-16T13:10:35;13.00;63.70
7307;DHT22;3694;48.732;9.248;2023-03-16T13:13:15;12.80;64.80
7307;DHT22;3694;48.732;9.248;2023-03-16T13:15:43;12.90;66.90
7307;DHT22;3694;48.732;9.248;2023-03-16T13:20:52;12.50;68.70
7307;DHT22;3694;48.732;9.248;2023-03-16T13:25:59;12.80;64.70
7307;DHT22;3694;48.732;9.248;2023-03-16T13:28:29;12.80;63.20
7307;DHT22;3694;48.732;9.248;2023-03-16T13:30:55;12.60;62.90
7307;DHT22;3694;48.732;9.248;2023-03-16T13:33:24;12.40;66.20
7307;DHT22;3694;48.732;9.248;2023-03-16T13:35:52;12.40;64.30
7307;DHT22;3694;48.732;9.248;2023-03-16T13:38:20;12.20;63.40
7307;DHT22;3694;48.732;9.248;2023-03-16T13:40:55;12.00;62.60
7307;DHT22;3694;48.732;9.248;2023-03-16T13:43:24;11.80;62.20
7307;DHT22;3694;48.732;9.248;2023-03-16T13:45:53;11.70;62.40
7307;DHT22;3694;48.732;9.248;2023-03-16T13:48:19;11.60;63.30
7307;DHT22;3694;48.732;9.248;2023-03-16T13:50:55;11.50;64.30
7307;DHT22;3694;48.732;9.248;2023-03-16T13:53:29;11.50;65.40
7307;DHT22;3694;48.732;9.248;2023-03-16T13:55:57;11.40;62.30
7307;DHT22;3694;48.732;9.248;2023-03-16T13:58:36;11.40;61.30
7307;DHT22;3694;48.732;9.248;2023-03-16T14:01:14;11.50;61.40
7307;DHT22;3694;48.732;9.248;2023-03-16T14:03:43;11.50;62.60
7307;DHT22;3694;48.732;9.248;2023-03-16T14:06:25;11.70;63.70
7307;DHT22;3694;48.732;9.248;2023-03-16T14:08:53;12.00;65.70
7307;DHT22;3694;48.732;9.248;2023-03-16T14:11:21;12.20;63.80
7307;DHT22;3694;48.732;9.248;2023-03-16T14:13:52;12.50;63.80
7307;DHT22;3694;48.732;9.248;2023-03-16T14:16:22;12.80;64.10
7307;DHT22;3694;48.732;9.248;2023-03-16T14:19:03;12.90;62.80
7307;DHT22;3694;48.732;9.248;2023-03-16T14:21:31;13.10;62.20
7307;DHT22;3694;48.732;9.248;2023-03-16T14:24:05;13.20;61.60
7307;DHT22;3694;48.732;9.248;2023-03-16T14:26:42;13.20;61.90
7307;DHT22;3694;48.732;9.248;2023-03-16T14:29:29;13.20;61.70
7307;DHT22;3694;48.732;9.248;2023-03-16T14:31:57;13.10;61.10
7307;DHT22;3694;48.732;9.248;2023-03-16T14:37:14;13.20;61.40
7307;DHT22;3694;48.732;9.248;2023-03-16T14:39:41;13.20;60.20
7307;DHT22;3694;48.732;9.248;2023-03-16T14:42:34;12.90;60.90
7307;DHT22;3694;48.732;9.248;2023-03-16T14:45:02;12.90;59.90
7307;DHT22;3694;48.732;9.248;2023-03-16T14:47:36;13.00;56.40
7307;DHT22;3694;48.732;9.248;2023-03-16T14:50:28;12.80;54.30
7307;DHT22;3694;48.732;9.248;2023-03-16T14:52:54;12.60;54.50
7307;DHT22;3694;48.732;9.248;2023-03-16T14:55:20;12.40;52.80
7307;DHT22;3694;48.732;9.248;2023-03-16T14:57:47;12.40;53.40
7307;DHT22;3694;48.732;9.248;2023-03-16T15:00:15;12.30;54.00
7307;DHT22;3694;48.732;9.248;2023-03-16T15:02:44;12.30;53.60
7307;DHT22;3694;48.732;9.248;2023-03-16T15:05:19;12.20;52.60
7307;DHT22;3694;48.732;9.248;2023-03-16T15:07:45;12.00;53.10
7307;DHT22;3694;48.732;9.248;2023-03-16T15:10:39;12.00;53.30
7307;DHT22;3694;48.732;9.248;2023-03-16T15:13:14;11.90;54.40
7307;DHT22;3694;48.732;9.248;2023-03-16T15:16:02;12.00;52.90
7307;DHT22;3694;48.732;9.248;2023-03-16T15:18:29;12.10;54.50
7307;DHT22;3694;48.732;9.248;2023-03-16T15:20:55;12.20;55.70
7307;DHT22;3694;48.732;9.248;2023-03-16T15:23:21;12.20;54.80
7307;DHT22;3694;48.732;9.248;2023-03-16T15:25:48;12.20;55.50
7307;DHT22;3694;48.732;9.248;2023-03-16T15:28:16;12.10;53.10
7307;DHT22;3694;48.732;9.248;2023-03-16T15:30:44;12.00;53.50
7307;DHT22;3694;48.732;9.248;2023-03-16T15:33:10;12.00;55.40
7307;DHT22;3694;48.732;9.248;2023-03-16T15:35:37;12.00;54.60
7307;DHT22;3694;48.732;9.248;2023-03-16T15:38:06;12.10;55.30
7307;DHT22;3694;48.732;9.248;2023-03-16T15:40:36;12.00;54.00
7307;DHT22;3694;48.732;9.248;2023-03-16T15:43:08;11.90;54.20
7307;DHT22;3694;48.732;9.248;2023-03-16T15:45:33;11.90;54.10
7307;DHT22;3694;48.732;9.248;2023-03-16T15:47:59;11.80;55.40
7307;DHT22;3694;48.732;9.248;2023-03-16T15:50:25;11.80;53.80
7307;DHT22;3694;48.732;9.248;2023-03-16T15:52:56;11.80;55.10
7307;DHT22;3694;48.732;9.248;2023-03-16T15:55:30;11.80;55.00
7307;DHT22;3694;48.732;9.248;2023-03-16T15:57:58;11.70;54.30
7307;DHT22;3694;48.732;9.248;2023-03-16T16:00:32;11.60;54.60
7307;DHT22;3694;48.732;9.248;2023-03-16T16:02:59;11.50;55.50
7307;DHT22;3694;48.732;9.248;2023-03-16T16:05:25;11.30;54.90
7307;DHT22;3694;48.732;9.248;2023-03-16T16:07:52;11.30;56.10
7307;DHT22;3694;48.732;9.248;2023-03-16T16:10:19;11.20;57.20
7307;DHT22;3694;48.732;9.248;2023-03-16T16:12:46;11.20;56.70
7307;DHT22;3694;48.732;9.248;2023-03-16T16:15:28;11.00;57.60
7307;DHT22;3694;48.732;9.248;2023-03-16T16:17:57;11.00;57.70
7307;DHT22;3694;48.732;9.248;2023-03-16T16:20:30;10.90;58.20
7307;DHT22;3694;48.732;9.248;2023-03-16T16:22:57;10.80;58.90
7307;DHT22;3694;48.732;9.248;2023-03-16T16:25:26;10.70;57.90
7307;DHT22;3694;48.732;9.248;2023-03-16T16:27:52;10.70;57.60
7307;DHT22;3694;48.732;9.248;2023-03-16T16:30:24;10.60;58.40
7307;DHT22;3694;48.732;9.248;2023-03-16T16:32:50;10.50;58.80
7307;DHT22;3694;48.732;9.248;2023-03-16T16:35:25;10.50;58.70
7307;DHT22;3694;48.732;9.248;2023-03-16T16:37:51;10.40;59.30
7307;DHT22;3694;48.732;9.248;2023-03-16T16:40:20;10.30;59.70
7307;DHT22;3694;48.732;9.248;2023-03-16T16:42:48;10.20;59.70
7307;DHT22;3694;48.732;9.248;2023-03-16T16:45:17;10.10;59.90
7307;DHT22;3694;48.732;9.248;2023-03-16T16:47:44;10.00;60.20
7307;DHT22;3694;48.732;9.248;2023-03-16T16:50:15;9.90;62.00
7307;DHT22;3694;48.732;9.248;2023-03-16T16:52:41;9.80;62.70
7307;DHT22;3694;48.732;9.248;2023-03-16T16:55:07;9.60;62.90
7307;DHT22;3694;48.732;9.248;2023-03-16T16:57:33;9.50;63.40
7307;DHT22;3694;48.732;9.248;2023-03-16T16:59:59;9.40;63.60
7307;DHT22;3694;48.732;9.248;2023-03-16T17:02:40;9.40;64.00
7307;DHT22;3694;48.732;9.248;2023-03-16T17:05:16;9.20;63.90
7307;DHT22;3694;48.732;9.248;2023-03-16T17:07:42;9.00;64.50
7307;DHT22;3694;48.732;9.248;2023-03-16T17:10:13;8.90;65.70